createdAt,value
2018-10-18T00:00:36.617Z,22.33
2018-10-18T00:03:07.205Z,22.37
2018-10-18T00:05:37.248Z,22.56
2018-10-18T00:08:07.722Z,22.46
2018-10-18T00:10:37.537Z,22.37
2018-10-18T00:13:07.352Z,22.33
2018-10-18T00:18:19.755Z,22.11
2018-10-18T00:20:49.817Z,22.21
2018-10-18T00:23:19.480Z,22.14
2018-10-18T00:25:49.153Z,22.02
2018-10-18T00:28:21.323Z,21.84
2018-10-18T00:30:51.751Z,21.89
2018-10-18T00:33:23.569Z,21.80
2018-10-18T00:35:57.510Z,21.76
2018-10-18T00:38:27.568Z,21.67
2018-10-18T00:40:57.450Z,21.57
2018-10-18T00:43:27.103Z,21.60
2018-10-18T00:45:56.675Z,21.59
2018-10-18T00:48:27.146Z,21.61
2018-10-18T00:50:57.428Z,21.53
2018-10-18T00:53:28.434Z,21.50
2018-10-18T00:55:59.224Z,21.46
2018-10-18T00:58:29.850Z,21.41
2018-10-18T01:00:59.510Z,21.32
2018-10-18T01:03:29.612Z,21.28
2018-10-18T01:06:00.483Z,21.34
2018-10-18T01:08:30.258Z,21.31
2018-10-18T01:11:00.752Z,21.33
2018-10-18T01:13:31.381Z,21.24
2018-10-18T01:16:01.590Z,21.19
2018-10-18T01:18:31.548Z,20.98
2018-10-18T01:21:01.140Z,20.85
2018-10-18T01:23:31.489Z,20.22
2018-10-18T01:26:01.753Z,21.03
2018-10-18T01:28:31.436Z,21.08
2018-10-18T01:31:01.054Z,21.05
2018-10-18T01:33:30.934Z,21.06
2018-10-18T01:36:00.741Z,21.05
2018-10-18T01:38:30.331Z,21.05
2018-10-18T01:41:01.234Z,20.95
2018-10-18T01:43:30.828Z,20.84
2018-10-18T01:46:01.504Z,20.78
2018-10-18T01:48:31.749Z,20.74
2018-10-18T01:51:01.400Z,20.74
2018-10-18T01:53:31.236Z,20.69
2018-10-18T01:56:01.355Z,20.68
2018-10-18T01:58:31.904Z,20.60
2018-10-18T02:01:01.550Z,20.64
2018-10-18T02:03:31.187Z,20.74
2018-10-18T02:06:00.722Z,20.84
2018-10-18T02:08:30.360Z,21.04
2018-10-18T02:10:59.946Z,21.17
2018-10-18T02:13:30.521Z,21.27
2018-10-18T02:16:00.421Z,21.18
2018-10-18T02:18:30.161Z,21.13
2018-10-18T02:20:59.767Z,21.05
2018-10-18T02:23:29.304Z,21.10
2018-10-18T02:25:59.326Z,20.95
2018-10-18T02:28:29.380Z,21.06
2018-10-18T02:30:58.875Z,21.09
2018-10-18T02:33:28.467Z,21.07
2018-10-18T02:35:58.161Z,21.09
2018-10-18T02:38:27.839Z,21.13
2018-10-18T02:40:57.928Z,21.09
2018-10-18T02:43:27.615Z,21.05
2018-10-18T02:45:57.168Z,21.10
2018-10-18T02:48:27.123Z,21.10
2018-10-18T02:50:56.729Z,21.03
2018-10-18T02:53:26.318Z,20.99
2018-10-18T02:55:56.155Z,21.02
2018-10-18T02:58:26.492Z,21.04
2018-10-18T03:00:55.993Z,21.13
2018-10-18T03:03:26.515Z,21.12
2018-10-18T03:05:56.233Z,21.16
2018-10-18T03:08:26.055Z,21.16
2018-10-18T03:10:56.184Z,21.14
2018-10-18T03:13:25.840Z,21.05
2018-10-18T03:15:55.510Z,21.00
2018-10-18T03:18:25.545Z,20.88
2018-10-18T03:20:55.154Z,20.80
2018-10-18T03:23:24.857Z,20.75
2018-10-18T03:25:54.655Z,20.69
2018-10-18T03:28:24.245Z,20.67
2018-10-18T03:30:54.112Z,20.66
2018-10-18T03:33:24.090Z,20.66
2018-10-18T03:36:34.126Z,19.81
2018-10-18T03:39:08.415Z,20.55
2018-10-18T03:41:38.771Z,20.58
2018-10-18T03:44:09.425Z,20.60
2018-10-18T03:46:39.560Z,20.57
2018-10-18T03:49:09.189Z,20.61
2018-10-18T03:51:38.877Z,20.68
2018-10-18T03:54:08.617Z,20.78
2018-10-18T03:56:38.138Z,20.73
2018-10-18T03:59:08.102Z,20.68
2018-10-18T04:01:38.419Z,20.78
2018-10-18T04:04:11.216Z,20.84
2018-10-18T04:06:40.767Z,20.85
2018-10-18T04:09:11.222Z,20.81
2018-10-18T04:11:41.561Z,20.66
2018-10-18T04:14:11.111Z,20.73
2018-10-18T04:19:39.557Z,20.66
2018-10-18T04:22:09.972Z,20.58
2018-10-18T04:24:40.101Z,20.52
2018-10-18T04:27:09.736Z,20.47
2018-10-18T04:29:39.382Z,20.44
2018-10-18T04:32:10.443Z,20.40
2018-10-18T04:34:40.102Z,20.26
2018-10-18T04:37:09.793Z,20.16
2018-10-18T04:39:39.785Z,20.16
2018-10-18T04:42:09.453Z,20.17
2018-10-18T04:44:39.327Z,20.16
2018-10-18T04:47:09.524Z,20.17
2018-10-18T04:49:40.534Z,20.12
2018-10-18T04:52:10.225Z,20.10
2018-10-18T04:54:40.192Z,20.03
2018-10-18T04:57:09.792Z,19.97
2018-10-18T04:59:40.289Z,20.08
2018-10-18T05:02:10.341Z,19.91
2018-10-18T05:04:40.111Z,19.98
2018-10-18T05:07:09.860Z,20.08
2018-10-18T05:12:30.367Z,20.06
2018-10-18T05:15:01.017Z,20.09
2018-10-18T05:17:31.037Z,19.93
2018-10-18T05:20:02.547Z,19.93
2018-10-18T05:22:32.283Z,20.08
2018-10-18T05:25:02.384Z,20.13
2018-10-18T05:27:32.266Z,20.16
2018-10-18T05:30:03.325Z,19.97
2018-10-18T05:32:33.353Z,20.04
2018-10-18T05:35:04.888Z,20.16
2018-10-18T05:37:34.566Z,20.18
2018-10-18T05:40:05.151Z,20.12
2018-10-18T05:42:34.822Z,20.03
2018-10-18T05:45:06.466Z,20.15
2018-10-18T05:47:36.771Z,20.29
2018-10-18T05:50:06.992Z,20.38
2018-10-18T05:52:38.805Z,20.32
2018-10-18T05:55:09.948Z,20.29
2018-10-18T05:57:40.211Z,20.22
2018-10-18T06:00:18.433Z,20.16
2018-10-18T06:02:49.666Z,20.10
2018-10-18T06:05:21.089Z,20.31
2018-10-18T06:07:51.022Z,20.46
2018-10-18T06:10:31.576Z,20.55
2018-10-18T06:13:01.778Z,20.52
2018-10-18T06:15:50.779Z,20.69
2018-10-18T06:18:22.551Z,21.02
2018-10-18T06:20:52.387Z,21.31
2018-10-18T06:23:22.565Z,21.58
2018-10-18T06:25:52.381Z,21.88
2018-10-18T06:28:22.040Z,21.89
2018-10-18T06:30:53.495Z,21.99
2018-10-18T06:33:23.673Z,22.19
2018-10-18T06:35:54.452Z,22.47
2018-10-18T06:38:24.172Z,22.69
2018-10-18T06:40:53.922Z,22.86
2018-10-18T06:43:24.943Z,22.54
2018-10-18T06:45:54.710Z,22.97
2018-10-18T06:48:24.522Z,23.22
2018-10-18T06:50:54.299Z,23.40
2018-10-18T06:53:24.092Z,23.71
2018-10-18T06:55:53.891Z,23.93
2018-10-18T06:58:23.545Z,24.20
2018-10-18T07:00:53.400Z,24.28
2018-10-18T07:03:23.509Z,24.19
2018-10-18T07:05:53.301Z,24.33
2018-10-18T07:08:22.981Z,24.25
2018-10-18T07:10:52.912Z,24.28
2018-10-18T07:13:23.177Z,24.28
2018-10-18T07:15:53.920Z,24.33
2018-10-18T07:21:02.542Z,24.55
2018-10-18T07:23:33.736Z,24.46
2018-10-18T07:26:05.526Z,24.50
2018-10-18T07:28:36.348Z,24.43
2018-10-18T07:31:07.875Z,24.35
2018-10-18T07:33:37.829Z,24.46
2018-10-18T07:36:09.283Z,24.32
2018-10-18T07:38:42.728Z,24.31
2018-10-18T07:41:12.596Z,23.80
2018-10-18T07:43:42.575Z,24.46
2018-10-18T07:46:15.175Z,24.45
2018-10-18T07:48:44.843Z,24.40
2018-10-18T07:51:14.876Z,24.54
2018-10-18T07:53:45.114Z,24.45
2018-10-18T07:56:15.015Z,24.42
2018-10-18T07:58:44.752Z,24.48
2018-10-18T08:01:14.800Z,24.40
2018-10-18T08:03:45.290Z,24.02
2018-10-18T08:06:14.977Z,24.42
2018-10-18T08:08:45.180Z,24.50
2018-10-18T08:11:15.538Z,24.60
2018-10-18T08:13:49.194Z,24.52
2018-10-18T08:16:20.764Z,24.57
2018-10-18T08:18:58.587Z,24.60
2018-10-18T08:21:30.096Z,24.59
2018-10-18T08:23:59.858Z,24.61
2018-10-18T08:26:32.439Z,24.80
2018-10-18T08:29:02.333Z,24.87
2018-10-18T08:31:33.039Z,24.82
2018-10-18T08:34:04.737Z,24.88
2018-10-18T08:36:34.490Z,25.10
2018-10-18T08:39:09.096Z,25.25
2018-10-18T08:41:39.672Z,25.24
2018-10-18T08:44:09.437Z,25.38
2018-10-18T08:46:39.220Z,25.36
2018-10-18T08:49:10.110Z,25.64
2018-10-18T08:51:40.132Z,25.72
2018-10-18T08:54:11.189Z,25.51
2018-10-18T08:56:41.248Z,25.68
2018-10-18T08:59:11.096Z,25.77
2018-10-18T09:01:41.581Z,25.85
2018-10-18T09:04:11.426Z,25.86
2018-10-18T09:06:46.217Z,25.82
2018-10-18T09:09:18.382Z,25.93
2018-10-18T09:11:49.061Z,26.11
2018-10-18T09:14:23.418Z,25.99
2018-10-18T09:16:57.643Z,26.18
2018-10-18T09:19:29.666Z,26.43
2018-10-18T09:22:00.440Z,26.50
2018-10-18T09:24:32.193Z,26.50
2018-10-18T09:27:03.398Z,26.62
2018-10-18T09:29:33.527Z,26.80
2018-10-18T09:32:04.512Z,26.47
2018-10-18T09:34:34.473Z,26.67
2018-10-18T09:37:05.402Z,26.81
2018-10-18T09:39:37.059Z,26.95
2018-10-18T09:42:07.303Z,27.27
2018-10-18T09:44:38.227Z,27.38
2018-10-18T09:47:12.432Z,27.37
2018-10-18T09:49:43.110Z,27.43
2018-10-18T09:52:12.851Z,27.51
2018-10-18T09:54:42.460Z,27.76
2018-10-18T09:57:13.146Z,27.87
2018-10-18T09:59:45.353Z,27.96
2018-10-18T10:02:21.305Z,28.05
2018-10-18T10:04:54.648Z,28.05
2018-10-18T10:07:25.979Z,27.96
2018-10-18T10:09:56.739Z,27.93
2018-10-18T10:12:28.349Z,28.11
2018-10-18T10:15:03.455Z,28.04
2018-10-18T10:17:33.230Z,28.31
2018-10-18T10:20:03.125Z,28.21
2018-10-18T10:22:32.799Z,28.28
2018-10-18T10:25:08.552Z,28.15
2018-10-18T10:27:39.594Z,28.47
2018-10-18T10:30:14.112Z,28.74
2018-10-18T10:32:44.033Z,28.83
2018-10-18T10:35:14.808Z,28.88
2018-10-18T10:37:48.210Z,28.96
2018-10-18T10:40:20.148Z,28.72
2018-10-18T10:42:50.483Z,28.76
2018-10-18T10:45:23.242Z,29.04
2018-10-18T10:50:35.677Z,29.32
2018-10-18T10:53:05.837Z,29.27
2018-10-18T10:55:41.881Z,29.24
2018-10-18T10:58:13.542Z,29.28
2018-10-18T11:01:19.629Z,29.22
2018-10-18T11:03:51.855Z,29.53
2018-10-18T11:06:22.474Z,29.50
2018-10-18T11:08:53.739Z,29.62
2018-10-18T11:11:25.813Z,29.48
2018-10-18T11:13:58.762Z,29.67
2018-10-18T11:16:29.161Z,29.70
2018-10-18T11:18:59.785Z,29.70
2018-10-18T11:21:30.979Z,29.68
2018-10-18T11:24:00.818Z,29.94
2018-10-18T11:26:30.841Z,29.72
2018-10-18T11:29:00.656Z,29.71
2018-10-18T11:31:38.530Z,29.81
2018-10-18T11:34:14.564Z,29.91
2018-10-18T11:36:44.357Z,30.04
2018-10-18T11:39:22.660Z,30.14
2018-10-18T11:41:55.060Z,30.41
2018-10-18T11:44:29.821Z,30.40
2018-10-18T11:47:00.436Z,30.40
2018-10-18T11:49:33.654Z,30.29
2018-10-18T11:52:05.565Z,30.25
2018-10-18T11:54:36.290Z,30.16
2018-10-18T11:57:07.316Z,30.05
2018-10-18T11:59:39.001Z,30.25
2018-10-18T12:02:09.057Z,30.37
2018-10-18T12:04:40.698Z,30.58
2018-10-18T12:07:11.277Z,30.89
2018-10-18T12:09:42.274Z,30.97
2018-10-18T12:12:15.813Z,30.93
2018-10-18T12:14:46.489Z,30.99
2018-10-18T12:17:20.776Z,30.91
2018-10-18T12:19:52.357Z,30.68
2018-10-18T12:22:22.229Z,30.39
2018-10-18T12:24:55.985Z,30.06
2018-10-18T12:27:25.816Z,29.98
2018-10-18T12:29:57.535Z,30.18
2018-10-18T12:32:31.392Z,30.38
2018-10-18T12:35:04.769Z,30.35
2018-10-18T12:37:39.231Z,30.35
2018-10-18T12:40:10.407Z,30.21
2018-10-18T12:42:44.976Z,29.98
2018-10-18T12:45:16.415Z,29.94
2018-10-18T12:47:46.162Z,29.86
2018-10-18T12:50:17.009Z,29.61
2018-10-18T12:55:18.560Z,29.59
2018-10-18T12:57:49.630Z,29.40
2018-10-18T13:00:23.314Z,29.25
2018-10-18T13:02:54.695Z,29.11
2018-10-18T13:05:29.268Z,28.80
2018-10-18T13:07:59.437Z,28.74
2018-10-18T13:10:31.179Z,28.66
2018-10-18T13:13:02.041Z,28.48
2018-10-18T13:15:32.424Z,28.59
2018-10-18T13:18:04.880Z,28.61
2018-10-18T13:20:34.745Z,28.56
2018-10-18T13:23:08.125Z,28.55
2018-10-18T13:25:38.951Z,28.52
2018-10-18T13:28:12.452Z,28.66
2018-10-18T13:30:43.806Z,28.64
2018-10-18T13:33:15.866Z,28.57
2018-10-18T13:35:48.903Z,28.60
2018-10-18T13:38:20.336Z,28.74
2018-10-18T13:40:50.275Z,28.68
2018-10-18T13:43:21.909Z,28.67
2018-10-18T13:45:52.736Z,28.60
2018-10-18T13:48:24.241Z,28.53
2018-10-18T13:50:55.975Z,28.49
2018-10-18T13:53:30.944Z,28.43
2018-10-18T13:56:01.781Z,28.49
2018-10-18T13:58:31.771Z,28.58
2018-10-18T14:01:03.178Z,28.50
2018-10-18T14:03:33.581Z,28.51
2018-10-18T14:06:05.449Z,28.39
2018-10-18T14:08:40.439Z,28.36
2018-10-18T14:11:10.456Z,28.39
2018-10-18T14:13:40.580Z,28.44
2018-10-18T14:16:11.079Z,28.33
2018-10-18T14:18:41.783Z,28.24
2018-10-18T14:21:16.627Z,28.14
2018-10-18T14:23:47.237Z,28.07
2018-10-18T14:26:18.722Z,28.25
2018-10-18T14:28:48.606Z,28.38
2018-10-18T14:31:20.476Z,28.38
2018-10-18T14:33:51.950Z,27.69
2018-10-18T14:36:22.544Z,28.23
2018-10-18T14:38:53.117Z,28.31
2018-10-18T14:41:24.439Z,28.40
2018-10-18T14:44:01.556Z,28.52
2018-10-18T14:46:32.985Z,28.36
2018-10-18T14:49:04.555Z,28.32
2018-10-18T14:51:37.339Z,28.46
2018-10-18T14:54:08.318Z,28.47
2018-10-18T14:56:39.245Z,28.44
2018-10-18T14:59:11.256Z,28.38
2018-10-18T15:01:42.425Z,28.31
2018-10-18T15:04:13.164Z,28.32
2018-10-18T15:06:42.957Z,28.35
2018-10-18T15:09:13.449Z,28.18
2018-10-18T15:11:46.478Z,28.20
2018-10-18T15:14:19.169Z,28.24
2018-10-18T15:16:52.736Z,28.14
2018-10-18T15:19:23.208Z,27.90
2018-10-18T15:21:53.934Z,28.11
2018-10-18T15:24:24.543Z,27.94
2018-10-18T15:26:54.677Z,27.91
2018-10-18T15:29:27.026Z,27.84
2018-10-18T15:31:59.056Z,27.85
2018-10-18T15:34:28.961Z,27.78
2018-10-18T15:37:00.783Z,27.59
2018-10-18T15:39:31.643Z,27.73
2018-10-18T15:42:03.256Z,27.56
2018-10-18T15:44:34.462Z,27.39
2018-10-18T15:47:04.562Z,27.31
2018-10-18T15:49:36.515Z,27.19
2018-10-18T15:52:06.372Z,27.12
2018-10-18T15:54:39.642Z,26.81
2018-10-18T15:57:12.621Z,26.94
2018-10-18T15:59:45.913Z,26.72
2018-10-18T16:02:16.545Z,26.46
2018-10-18T16:04:48.516Z,26.41
2018-10-18T16:07:19.265Z,26.36
2018-10-18T16:09:49.090Z,26.19
2018-10-18T16:12:19.010Z,26.09
2018-10-18T16:14:49.654Z,25.95
2018-10-18T16:17:23.856Z,25.87
2018-10-18T16:19:55.791Z,25.79
2018-10-18T16:22:25.641Z,25.65
2018-10-18T16:24:55.530Z,25.61
2018-10-18T16:27:25.294Z,25.48
2018-10-18T16:29:55.150Z,25.42
2018-10-18T16:32:28.927Z,25.14
2018-10-18T16:34:59.749Z,25.25
2018-10-18T16:37:30.356Z,25.11
2018-10-18T16:40:01.097Z,25.25
2018-10-18T16:42:30.954Z,25.12
2018-10-18T16:45:00.722Z,24.99
2018-10-18T16:47:30.537Z,24.95
2018-10-18T16:50:01.571Z,24.73
2018-10-18T16:52:31.678Z,24.80
2018-10-18T16:55:01.578Z,24.61
2018-10-18T16:57:31.396Z,24.47
2018-10-18T17:00:02.961Z,24.38
2018-10-18T17:02:40.028Z,24.44
2018-10-18T17:05:10.518Z,24.39
2018-10-18T17:07:41.459Z,24.38
2018-10-18T17:10:14.120Z,24.38
2018-10-18T17:12:48.328Z,24.23
2018-10-18T17:15:20.408Z,24.17
2018-10-18T17:17:51.931Z,24.27
2018-10-18T17:20:23.365Z,24.11
2018-10-18T17:22:54.071Z,24.05
2018-10-18T17:25:25.625Z,24.03
2018-10-18T17:27:55.437Z,23.95
2018-10-18T17:30:25.633Z,23.91
2018-10-18T17:32:56.830Z,23.81
2018-10-18T17:35:27.349Z,23.83
2018-10-18T17:37:59.459Z,23.75
2018-10-18T17:40:30.254Z,23.81
2018-10-18T17:43:02.346Z,23.78
2018-10-18T17:45:34.230Z,23.63
2018-10-18T17:48:06.573Z,23.58
2018-10-18T17:50:38.461Z,23.48
2018-10-18T17:53:10.308Z,23.51
2018-10-18T17:55:41.239Z,23.43
2018-10-18T17:58:11.876Z,23.50
2018-10-18T18:00:44.687Z,23.43
2018-10-18T18:03:17.188Z,23.35
2018-10-18T18:05:47.283Z,23.38
2018-10-18T18:08:18.027Z,23.38
2018-10-18T18:10:49.436Z,23.21
2018-10-18T18:13:21.680Z,23.23
2018-10-18T18:15:51.504Z,23.09
2018-10-18T18:18:24.220Z,23.23
2018-10-18T18:20:55.373Z,23.07
2018-10-18T18:23:25.898Z,23.02
2018-10-18T18:25:59.565Z,23.01
2018-10-18T18:28:33.181Z,22.93
2018-10-18T18:31:05.803Z,23.01
2018-10-18T18:33:35.756Z,22.90
2018-10-18T18:36:07.264Z,22.82
2018-10-18T18:38:37.467Z,22.86
2018-10-18T18:41:07.499Z,22.73
2018-10-18T18:43:39.758Z,22.77
2018-10-18T18:46:09.935Z,22.72
2018-10-18T18:48:42.362Z,22.67
2018-10-18T18:51:13.881Z,22.59
2018-10-18T18:53:45.101Z,22.57
2018-10-18T18:56:16.462Z,22.60
2018-10-18T18:58:46.253Z,22.58
2018-10-18T19:01:17.689Z,22.49
2018-10-18T19:03:48.169Z,22.48
2018-10-18T19:06:19.271Z,22.44
2018-10-18T19:08:50.706Z,22.44
2018-10-18T19:11:20.479Z,22.46
2018-10-18T19:13:55.196Z,22.41
2018-10-18T19:16:25.341Z,22.44
2018-10-18T19:18:58.916Z,22.39
2018-10-18T19:21:28.737Z,22.40
2018-10-18T19:23:59.974Z,22.35
2018-10-18T19:26:29.899Z,22.35
2018-10-18T19:29:02.086Z,22.34
2018-10-18T19:31:34.838Z,22.25
2018-10-18T19:34:05.604Z,22.25
2018-10-18T19:36:43.735Z,22.27
2018-10-18T19:39:13.612Z,22.25
2018-10-18T19:41:44.224Z,22.17
2018-10-18T19:44:16.533Z,22.18
2018-10-18T19:46:50.323Z,22.19
2018-10-18T19:49:20.987Z,22.11
2018-10-18T19:51:50.722Z,22.08
2018-10-18T19:54:23.666Z,22.16
2018-10-18T19:56:56.241Z,22.22
2018-10-18T19:59:26.690Z,22.24
2018-10-18T20:01:59.965Z,22.20
2018-10-18T20:04:32.457Z,22.13
2018-10-18T20:07:02.928Z,22.04
2018-10-18T20:09:34.067Z,22.03
2018-10-18T20:12:05.455Z,22.05
2018-10-18T20:14:39.857Z,21.97
2018-10-18T20:17:09.884Z,21.97
2018-10-18T20:19:42.286Z,21.97
2018-10-18T20:22:14.093Z,22.04
2018-10-18T20:24:45.091Z,22.00
2018-10-18T20:27:16.203Z,21.95
2018-10-18T20:29:45.820Z,21.98
2018-10-18T20:32:16.251Z,21.96
2018-10-18T20:34:47.706Z,21.88
2018-10-18T20:37:17.528Z,21.85
2018-10-18T20:39:48.299Z,21.89
2018-10-18T20:42:22.159Z,21.83
2018-10-18T20:44:52.139Z,21.90
2018-10-18T20:47:23.376Z,21.85
2018-10-18T20:49:55.644Z,21.87
2018-10-18T20:52:27.597Z,21.88
2018-10-18T20:55:00.551Z,21.87
2018-10-18T20:57:32.298Z,21.79
2018-10-18T21:00:04.526Z,21.85
2018-10-18T21:02:35.353Z,21.20
2018-10-18T21:05:07.886Z,21.71
2018-10-18T21:07:38.367Z,21.63
2018-10-18T21:10:09.189Z,21.65
2018-10-18T21:12:40.036Z,21.48
2018-10-18T21:15:13.709Z,21.48
2018-10-18T21:17:43.420Z,21.57
2018-10-18T21:20:16.012Z,21.53
2018-10-18T21:22:48.400Z,21.48
2018-10-18T21:25:20.541Z,21.42
2018-10-18T21:27:52.378Z,21.36
2018-10-18T21:30:26.758Z,21.36
2018-10-18T21:32:57.993Z,21.33
2018-10-18T21:35:30.274Z,21.33
2018-10-18T21:38:01.678Z,21.28
2018-10-18T21:40:35.414Z,21.28
2018-10-18T21:43:07.734Z,21.26
2018-10-18T21:45:42.812Z,21.22
2018-10-18T21:48:15.287Z,21.35
2018-10-18T21:50:49.682Z,21.25
2018-10-18T21:53:23.101Z,21.15
2018-10-18T21:55:56.488Z,21.18
2018-10-18T21:58:28.889Z,21.16
2018-10-18T22:00:59.502Z,21.12
2018-10-18T22:03:31.563Z,21.12
2018-10-18T22:06:02.496Z,21.18
2018-10-18T22:08:33.003Z,21.10
2018-10-18T22:11:03.650Z,21.08
2018-10-18T22:13:37.942Z,21.08
2018-10-18T22:16:09.212Z,21.05
2018-10-18T22:18:41.798Z,21.06
2018-10-18T22:21:13.386Z,21.00
2018-10-18T22:23:44.879Z,21.01
2018-10-18T22:26:15.867Z,20.90
2018-10-18T22:28:47.311Z,20.97
2018-10-18T22:31:18.037Z,21.02
2018-10-18T22:33:49.525Z,21.05
2018-10-18T22:36:20.372Z,21.07
2018-10-18T22:38:50.842Z,21.10
2018-10-18T22:41:22.717Z,21.01
2018-10-18T22:43:55.209Z,20.96
2018-10-18T22:46:26.492Z,21.05
2018-10-18T22:48:57.459Z,21.02
2018-10-18T22:51:28.792Z,20.92
2018-10-18T22:54:00.400Z,20.94
2018-10-18T22:56:31.065Z,20.90
2018-10-18T22:59:01.672Z,20.91
2018-10-18T23:01:32.308Z,20.88
2018-10-18T23:04:03.618Z,20.89
2018-10-18T23:06:37.629Z,20.82
2018-10-18T23:09:12.557Z,20.78
2018-10-18T23:11:44.199Z,20.75
2018-10-18T23:14:15.633Z,20.74
2018-10-18T23:16:48.102Z,20.57
2018-10-18T23:19:22.590Z,20.65
2018-10-18T23:21:53.905Z,20.61
2018-10-18T23:24:25.237Z,20.62
2018-10-18T23:26:55.771Z,20.62
2018-10-18T23:29:28.432Z,20.69
2018-10-18T23:31:58.873Z,20.65
2018-10-18T23:34:30.115Z,20.69
2018-10-18T23:37:01.177Z,20.57
2018-10-18T23:39:32.128Z,20.57
2018-10-18T23:42:01.691Z,20.59
2018-10-18T23:44:33.931Z,20.59
2018-10-18T23:47:05.844Z,20.56
2018-10-18T23:49:36.880Z,20.44
2018-10-18T23:52:07.359Z,20.45
2018-10-18T23:54:37.795Z,20.41
2018-10-18T23:57:07.617Z,20.44
2018-10-18T23:59:39.151Z,20.38
